createdAt,value
2019-05-18T05:11:44.907Z,92.00
2019-05-18T05:21:45.720Z,103.55
2019-05-18T05:31:42.923Z,95.81
2019-05-18T05:41:42.256Z,92.38
2019-05-18T05:51:44.481Z,90.42
2019-05-18T06:01:41.799Z,93.70
2019-05-18T06:11:44.833Z,97.31
2019-05-18T06:21:42.544Z,101.60
2019-05-18T06:31:42.407Z,95.05
2019-05-18T06:41:42.582Z,94.64
2019-05-18T06:51:42.447Z,93.73
2019-05-18T07:01:42.522Z,100.53
2019-05-18T07:11:42.202Z,95.29
2019-05-18T07:21:42.465Z,95.20
2019-05-18T07:31:42.437Z,108.94
2019-05-18T07:41:46.641Z,108.37
2019-05-18T07:51:42.465Z,110.84
2019-05-18T08:01:44.798Z,112.60
2019-05-18T08:11:42.666Z,107.99
2019-05-18T08:21:52.678Z,104.01
2019-05-18T08:31:44.901Z,89.46
2019-05-18T08:41:42.977Z,100.12
2019-05-18T08:51:42.599Z,109.31
2019-05-18T09:01:42.343Z,103.96
2019-05-18T09:11:42.451Z,99.94
2019-05-18T09:21:42.632Z,98.16
2019-05-18T09:31:42.706Z,101.75
2019-05-18T09:41:42.628Z,135.37
2019-05-18T09:51:42.374Z,106.56
2019-05-18T10:01:42.654Z,101.01
2019-05-18T10:11:44.476Z,102.22
2019-05-18T10:21:42.808Z,103.65
2019-05-18T10:31:42.687Z,100.60
2019-05-18T10:41:44.701Z,105.55
2019-05-18T10:51:42.348Z,98.61
2019-05-18T11:01:43.986Z,97.93
2019-05-18T11:11:41.844Z,112.09
2019-05-18T11:21:41.802Z,108.96
2019-05-18T11:31:42.179Z,95.81
2019-05-18T11:41:43.291Z,107.45
2019-05-18T11:51:41.914Z,97.10
2019-05-18T12:01:44.243Z,103.67
2019-05-18T12:11:46.268Z,110.93
2019-05-18T12:21:42.134Z,103.63
2019-05-18T12:31:42.252Z,96.92
2019-05-18T12:41:42.146Z,106.72
2019-05-18T12:51:41.932Z,99.80
2019-05-18T13:01:45.800Z,99.64
2019-05-18T13:11:42.804Z,84.70
2019-05-18T13:21:41.973Z,111.79
2019-05-18T13:31:42.014Z,102.28
2019-05-18T13:41:42.707Z,112.06
2019-05-18T13:51:44.633Z,97.66
2019-05-18T14:01:44.846Z,106.66
2019-05-18T14:11:42.101Z,105.82
2019-05-18T14:21:42.699Z,103.47
2019-05-18T14:31:42.339Z,104.03
2019-05-18T14:41:43.964Z,104.56
2019-05-18T14:51:43.660Z,103.73
2019-05-18T15:01:43.997Z,110.93
2019-05-18T15:11:42.434Z,123.24
2019-05-18T15:21:42.407Z,142.34
2019-05-18T15:31:42.271Z,101.65
2019-05-18T15:41:42.247Z,106.57
2019-05-18T15:51:42.311Z,96.65
2019-05-18T16:01:41.992Z,101.41
2019-05-18T16:11:42.758Z,103.52
2019-05-18T16:21:42.822Z,94.25
2019-05-18T16:31:41.153Z,107.60
2019-05-18T16:41:42.979Z,106.92
2019-05-18T16:51:44.689Z,111.22
2019-05-18T17:01:42.819Z,112.15
2019-05-18T17:11:42.790Z,120.35
2019-05-18T17:21:43.187Z,99.01
2019-05-18T17:31:44.599Z,113.87
2019-05-18T17:41:45.079Z,97.13
2019-05-18T17:51:42.965Z,90.28
2019-05-18T18:01:43.160Z,90.00
2019-05-18T18:11:43.011Z,90.00
2019-05-18T18:21:42.466Z,98.59
2019-05-18T18:31:44.893Z,113.64
2019-05-18T18:41:43.010Z,180.00
2019-05-18T18:51:43.089Z,180.00
2019-05-18T19:01:44.177Z,180.00
